Flight Track Log - Related Links

Times and Time Zones

All times are in EDT time to prevent confusion due to time zone crossing. See the N21921 flight status page for this flight to view local times or setup timezone preferences in your user account.


Time Position Orientation Groundspeed Altitude Reporting Facility
EDT Latitude Longitude Course Direction KTS MPH feet Rate Location/Type
Wed 02:02:12 PM 38.6500 -90.7000 42° Northeast 129 148 1,500  Level Gateway (St. Louis) TRACON
Wed 02:03:12 PM 38.6500 -90.7500 270° West 141 162 2,500 934 Climbing Gateway (St. Louis) TRACON
Wed 02:04:14 PM 38.6761 -90.7619 340° North 135 155 3,400 857 Climbing Kansas City Center
Wed 02:05:18 PM 38.7181 -90.7669 355° North 142 163 4,300 871 Climbing Kansas City Center
Wed 02:06:18 PM 38.7700 -90.7722 355° North 150 173 5,200 912 Climbing Kansas City Center
Wed 02:07:00 PM 38.8231 -90.2675 42° Northeast  Level FlightAware Approximate
Wed 02:07:23 PM 38.8136 -90.7633 North 158 182 6,200  Level Kansas City Center
Wed 02:08:23 PM 38.8575 -90.7461 17° North 160 184 7,100 878 Climbing Kansas City Center
Wed 02:09:26 PM 38.9019 -90.7267 19° North 163 188 8,000 857 Climbing Kansas City Center
Wed 02:10:29 PM 38.9267 -90.6731 59° Northeast 173 199 8,900 976 Climbing Kansas City Center
Wed 02:11:29 PM 38.9575 -90.6153 56° Northeast 174 200 10,000 968 Climbing Kansas City Center
Wed 02:12:33 PM 38.9858 -90.5644 54° Northeast 173 199 10,900 576 Climbing Kansas City Center
Wed 02:13:34 PM 39.0172 -90.5072 55° Northeast 180 207 11,200 148 Climbing Kansas City Center
Wed 02:14:35 PM 39.0517 -90.4442 55° Northeast 208 239 11,200 98 Level Kansas City Center
Wed 02:15:37 PM 39.0897 -90.3744 55° Northeast 217 250 11,400 429 Climbing Kansas City Center
Wed 02:16:41 PM 39.1231 -90.3139 55° Northeast 210 242 12,100 726 Climbing Kansas City Center
Wed 02:17:41 PM 39.1556 -90.2536 55° Northeast 195 224 12,900 677 Climbing Kansas City Center
Wed 02:18:45 PM 39.1864 -90.1983 54° Northeast 194 223 13,500 614 Climbing Kansas City Center
Wed 02:19:48 PM 39.2153 -90.1367 59° Northeast 193 222 14,200 683 Climbing Kansas City Center
Wed 02:20:48 PM 39.2425 -90.0756 60° Northeast 193 222 14,900 629 Climbing Kansas City Center
Wed 02:21:52 PM 39.2683 -90.0119 62° Northeast 196 226 15,500 624 Climbing Kansas City Center
Wed 02:22:53 PM 39.2939 -89.9483 63° Northeast 198 228 16,200 683 Climbing Kansas City Center
Wed 02:23:55 PM 39.3206 -89.8853 61° Northeast 199 229 16,900 624 Climbing Kansas City Center
Wed 02:24:58 PM 39.3469 -89.8214 62° Northeast 199 229 17,500 480 Climbing Kansas City Center
Wed 02:26:00 PM 39.3789 -89.7442 62° Northeast 201 231 17,900 439 Climbing Kansas City Center
Wed 02:27:01 PM 39.4069 -89.6758 62° Northeast 211 243 18,400 488 Climbing Kansas City Center
Wed 02:28:03 PM 39.4344 -89.6058 63° Northeast 213 245 18,900 288 Climbing Kansas City Center
Wed 02:29:06 PM 39.4636 -89.5344 62° Northeast 219 252 19,000 48 Climbing Kansas City Center
Wed 02:30:07 PM 39.4953 -89.4589 61° Northeast 233 268 19,000  Level Kansas City Center
Wed 02:31:10 PM 39.5244 -89.3847 63° Northeast 233 268 19,000  Level Kansas City Center
Wed 02:32:11 PM 39.5622 -89.2914 62° Northeast 240 276 19,000  Level Kansas City Center
Wed 02:33:14 PM 39.5900 -89.2247 62° Northeast 240 276 19,000  Level Kansas City Center
Wed 02:34:16 PM 39.6211 -89.1478 62° Northeast 239 275 19,000  Level Kansas City Center
Wed 02:35:17 PM 39.6578 -89.0558 63° Northeast 239 275 19,000  Level Kansas City Center
Wed 02:36:21 PM 39.6892 -88.9789 62° Northeast 239 275 19,000  Level Kansas City Center
Wed 02:37:22 PM 39.7200 -88.9022 62° Northeast 239 275 19,000  Level Kansas City Center
Wed 02:38:26 PM 39.7458 -88.8214 67° East 240 276 19,000  Level Kansas City Center
Wed 02:39:27 PM 39.7633 -88.7361 75° East 244 281 19,000  Level Kansas City Center
Wed 02:40:30 PM 39.7836 -88.6494 73° East 247 284 19,000  Level Kansas City Center
Wed 02:41:30 PM 39.8050 -88.5478 75° East 247 284 19,000  Level Kansas City Center
Wed 02:42:35 PM 39.8228 -88.4619 75° East 247 284 19,000  Level Kansas City Center
Wed 02:43:35 PM 39.8400 -88.3767 75° East 247 284 19,000  Level Kansas City Center
Wed 02:44:37 PM 39.8578 -88.2906 75° East 247 284 19,000  Level Kansas City Center
Wed 02:45:41 PM 39.8769 -88.2008 74° East 247 284 19,000  Level Kansas City Center
Wed 02:46:48 PM 39.8975 -88.0992 75° East 247 284 19,000  Level Chicago Center
Wed 02:47:50 PM 39.9153 -88.0133 75° East 247 284 19,000  Level Chicago Center
Wed 02:48:52 PM 39.9333 -87.9278 75° East 247 284 19,000  Level Chicago Center
Wed 02:49:54 PM 39.9539 -87.8222 76° East 249 287 19,000  Level Chicago Center
Wed 02:50:57 PM 39.9714 -87.7358 75° East 250 288 19,000  Level Chicago Center
Wed 02:51:59 PM 39.9878 -87.6508 76° East 246 283 19,000  Level Chicago Center
Wed 02:53:01 PM 40.0036 -87.5608 77° East 252 290 19,000  Level Chicago Center
Wed 02:54:03 PM 40.0192 -87.4739 77° East 248 285 19,000  Level Chicago Center
Wed 02:55:05 PM 40.0406 -87.3872 72° East 249 287 19,000  Level Chicago Center
Wed 02:56:07 PM 40.0619 -87.2828 75° East 251 289 19,000  Level Chicago Center
Wed 02:57:09 PM 40.0794 -87.1967 75° East 247 284 19,000 -48 Level Chicago Center
Wed 02:58:12 PM 40.0947 -87.1086 77° East 248 285 18,900 -48 Descending Chicago Center
Wed 02:59:14 PM 40.1128 -87.0219 75° East 247 284 18,900  Level Chicago Center
Wed 03:00:16 PM 40.1294 -86.9342 76° East 247 284 18,900 48 Level Chicago Center
Wed 03:01:18 PM 40.1456 -86.8492 76° East 244 281 19,000 48 Climbing Chicago Center
Wed 03:02:20 PM 40.1658 -86.7472 75° East 240 276 19,000  Level Chicago Center
Wed 03:03:22 PM 40.1817 -86.6600 77° East 243 280 19,000 -48 Level Chicago Center
Wed 03:04:24 PM 40.1986 -86.5719 76° East 247 284 18,900 -48 Descending Chicago Center
Wed 03:05:27 PM 40.2147 -86.4864 76° East 246 283 18,900 48 Level Chicago Center
Wed 03:06:29 PM 40.2317 -86.3981 76° East 246 283 19,000 48 Climbing Chicago Center
Wed 03:07:31 PM 40.2478 -86.3100 76° East 247 284 19,000  Level Chicago Center
Wed 03:08:33 PM 40.2678 -86.2050 76° East 247 284 19,000  Level Chicago Center
Wed 03:09:35 PM 40.2844 -86.1175 76° East 247 284 19,000  Level Chicago Center
Wed 03:10:37 PM 40.3000 -86.0286 77° East 249 287 19,000  Level Chicago Center
Wed 03:11:39 PM 40.3161 -85.9392 77° East 249 287 19,000  Level Chicago Center
Wed 03:12:42 PM 40.3333 -85.8503 76° East 250 288 19,000  Level Chicago Center
Wed 03:13:44 PM 40.3494 -85.7611 77° East 250 288 19,000  Level Chicago Center
Wed 03:14:55 PM 40.3669 -85.6544 78° East 250 288 19,000  Level Indianapolis Center
Wed 03:15:48 PM 40.3842 -85.5658 76° East 250 288 19,000  Level Chicago Center
Wed 03:16:50 PM 40.4003 -85.4783 76° East 250 288 19,000  Level Chicago Center
Wed 03:17:52 PM 40.4164 -85.3892 77° East 250 288 19,000  Level Chicago Center
Wed 03:18:54 PM 40.4317 -85.2992 77° East 252 290 19,000  Level Chicago Center
Wed 03:19:57 PM 40.4483 -85.2092 76° East 253 291 19,000  Level Chicago Center
Wed 03:20:59 PM 40.4669 -85.1022 77° East 253 291 19,000  Level Chicago Center
Wed 03:22:10 PM 40.4839 -84.9950 78° East 251 289 19,000  Level Indianapolis Center
Wed 03:23:12 PM 40.4992 -84.9064 77° East 251 289 19,000  Level Indianapolis Center
Wed 03:24:14 PM 40.5144 -84.8189 77° East 250 288 19,000  Level Indianapolis Center
Wed 03:25:16 PM 40.5294 -84.7300 77° East 250 288 19,000  Level Indianapolis Center
Wed 03:26:18 PM 40.5453 -84.6400 77° East 250 288 19,000  Level Indianapolis Center
Wed 03:27:21 PM 40.5600 -84.5494 78° East 251 289 19,000  Level Indianapolis Center
Wed 03:28:23 PM 40.5794 -84.4400 77° East 251 289 19,000  Level Indianapolis Center
Wed 03:29:25 PM 40.5953 -84.3497 77° East 252 290 19,000  Level Indianapolis Center
Wed 03:30:27 PM 40.6103 -84.2592 78° East 252 290 19,000  Level Indianapolis Center
Wed 03:31:29 PM 40.6247 -84.1675 78° East 252 290 19,000  Level Indianapolis Center
Wed 03:32:31 PM 40.6400 -84.0750 78° East 252 290 19,000  Level Indianapolis Center
Wed 03:33:33 PM 40.6556 -83.9839 77° East 253 291 19,000  Level Indianapolis Center
Wed 03:34:35 PM 40.6731 -83.8725 78° East 255 293 19,000  Level Indianapolis Center
Wed 03:35:38 PM 40.6886 -83.7794 78° East 258 297 19,000  Level Indianapolis Center
Wed 03:36:41 PM 40.7042 -83.6869 77° East 258 297 19,000  Level Indianapolis Center
Wed 03:37:42 PM 40.7192 -83.5939 78° East 258 297 19,000  Level Indianapolis Center
Wed 03:38:44 PM 40.7342 -83.5014 78° East 258 297 19,000  Level Indianapolis Center
Wed 03:39:46 PM 40.7486 -83.4081 78° East 258 297 19,000  Level Indianapolis Center
Wed 03:40:48 PM 40.7631 -83.3147 78° East 258 297 19,000 -387 Level Indianapolis Center
Wed 03:41:50 PM 40.7814 -83.2028 78° East 268 308 18,200 -629 Descending Indianapolis Center
Wed 03:42:52 PM 40.7961 -83.0992 79° East 279 321 17,700 -532 Descending Indianapolis Center
Wed 03:43:54 PM 40.8128 -83.0000 77° East 279 321 17,100 -711 Descending Indianapolis Center
Wed 03:45:07 PM 40.8317 -82.8767 79° East 280 322 16,100 -800 Descending Cleveland Center
Wed 03:46:09 PM 40.8478 -82.7639 79° East 281 323 15,300 -726 Descending Cleveland Center
Wed 03:47:11 PM 40.8631 -82.6650 78° East 276 318 14,600 -726 Descending Cleveland Center
Wed 03:48:13 PM 40.8792 -82.5656 78° East 273 314 13,800 -720 Descending Cleveland Center
Wed 03:49:16 PM 40.9000 -82.4686 74° East 274 315 13,100 -768 Descending Cleveland Center
Wed 03:50:18 PM 40.9319 -82.3767 65° Northeast 274 315 12,200 -919 Descending Cleveland Center
Wed 03:51:20 PM 40.9589 -82.2836 69° East 272 313 11,200 -1,161 Descending Cleveland Center
Wed 03:52:22 PM 40.9567 -82.1633 91° East 280 322 9,800 -968 Descending Cleveland Center
Wed 03:53:24 PM 40.9514 -82.0644 94° East 273 314 9,200 -387 Descending Cleveland Center
Wed 03:54:26 PM 40.9650 -81.9789 78° East 239 275 9,000 -48 Descending Cleveland Center
Wed 03:55:28 PM 40.9781 -81.8975 78° East 229 264 9,100  Climbing Cleveland Center
Wed 03:56:30 PM 40.9886 -81.8158 80° East 228 262 9,000 -677 Descending Cleveland Center
Wed 03:57:32 PM 41.0014 -81.7286 79° East 238 274 7,700 -1,824 Descending Cleveland Center
Wed 03:58:35 PM 41.0169 -81.6147 80° East 265 305 5,200 -1,488 Descending Cleveland Center
Wed 03:59:37 PM 41.0286 -81.5306 80° East 266 306 4,600 -581 Descending Cleveland Center
Wed 04:01:00 PM 41.0333 -81.4667 90° East  Level FlightAware Approximate

Login

Don't have an account? Register now (free) for customized features, flight alerts, and more!